sensor_id;sensor_type;location;lat;lon;timestamp;temperature;humidity
12849;DHT22;6493;50.928;7.172;2023-08-08T00:03:32;11.40;64.60
12849;DHT22;6493;50.928;7.172;2023-08-08T00:08:36;11.40;64.50
12849;DHT22;6493;50.928;7.172;2023-08-08T00:13:41;11.30;64.50
12849;DHT22;6493;50.928;7.172;2023-08-08T00:18:45;11.20;64.50
12849;DHT22;6493;50.928;7.172;2023-08-08T00:23:49;11.20;64.50
12849;DHT22;6493;50.928;7.172;2023-08-08T00:28:54;11.10;64.50
12849;DHT22;6493;50.928;7.172;2023-08-08T00:33:57;11.10;64.60
12849;DHT22;6493;50.928;7.172;2023-08-08T00:39:01;11.00;64.60
12849;DHT22;6493;50.928;7.172;2023-08-08T00:44:06;11.00;64.70
12849;DHT22;6493;50.928;7.172;2023-08-08T00:49:10;10.90;64.70
12849;DHT22;6493;50.928;7.172;2023-08-08T00:54:13;10.90;64.60
12849;DHT22;6493;50.928;7.172;2023-08-08T00:59:19;10.80;64.50
12849;DHT22;6493;50.928;7.172;2023-08-08T01:04:26;10.80;64.60
12849;DHT22;6493;50.928;7.172;2023-08-08T01:09:32;10.80;64.50
12849;DHT22;6493;50.928;7.172;2023-08-08T01:14:38;10.70;64.40
12849;DHT22;6493;50.928;7.172;2023-08-08T01:19:43;10.60;64.40
12849;DHT22;6493;50.928;7.172;2023-08-08T01:24:49;10.60;65.20
12849;DHT22;6493;50.928;7.172;2023-08-08T01:29:53;10.60;64.70
12849;DHT22;6493;50.928;7.172;2023-08-08T01:34:56;10.50;64.70
12849;DHT22;6493;50.928;7.172;2023-08-08T01:40:02;10.50;64.80
12849;DHT22;6493;50.928;7.172;2023-08-08T01:45:08;10.50;64.90
12849;DHT22;6493;50.928;7.172;2023-08-08T01:50:12;10.50;65.00
12849;DHT22;6493;50.928;7.172;2023-08-08T01:55:17;10.50;65.10
12849;DHT22;6493;50.928;7.172;2023-08-08T02:00:21;10.50;65.10
12849;DHT22;6493;50.928;7.172;2023-08-08T02:05:25;10.50;65.20
12849;DHT22;6493;50.928;7.172;2023-08-08T02:10:30;10.50;65.20
12849;DHT22;6493;50.928;7.172;2023-08-08T02:15:33;10.50;65.20
12849;DHT22;6493;50.928;7.172;2023-08-08T02:20:37;10.50;65.20
12849;DHT22;6493;50.928;7.172;2023-08-08T02:25:42;10.50;65.10
12849;DHT22;6493;50.928;7.172;2023-08-08T02:30:46;10.50;65.20
12849;DHT22;6493;50.928;7.172;2023-08-08T02:35:50;10.50;65.10
12849;DHT22;6493;50.928;7.172;2023-08-08T02:40:55;10.50;65.10
12849;DHT22;6493;50.928;7.172;2023-08-08T02:45:58;10.40;64.90
12849;DHT22;6493;50.928;7.172;2023-08-08T02:51:02;10.40;64.90
12849;DHT22;6493;50.928;7.172;2023-08-08T02:56:08;10.30;64.80
12849;DHT22;6493;50.928;7.172;2023-08-08T03:01:15;10.20;64.70
12849;DHT22;6493;50.928;7.172;2023-08-08T03:06:22;10.20;64.80
12849;DHT22;6493;50.928;7.172;2023-08-08T03:11:28;10.10;64.70
12849;DHT22;6493;50.928;7.172;2023-08-08T03:16:32;10.00;64.80
12849;DHT22;6493;50.928;7.172;2023-08-08T03:21:37;10.00;64.90
12849;DHT22;6493;50.928;7.172;2023-08-08T03:26:43;9.90;64.90
12849;DHT22;6493;50.928;7.172;2023-08-08T03:31:47;9.90;64.90
12849;DHT22;6493;50.928;7.172;2023-08-08T03:36:52;9.90;64.90
12849;DHT22;6493;50.928;7.172;2023-08-08T03:41:57;9.80;64.80
12849;DHT22;6493;50.928;7.172;2023-08-08T03:47:01;9.80;65.00
12849;DHT22;6493;50.928;7.172;2023-08-08T03:52:21;9.70;65.00
12849;DHT22;6493;50.928;7.172;2023-08-08T03:57:27;9.70;65.00
12849;DHT22;6493;50.928;7.172;2023-08-08T04:02:31;9.70;65.80
12849;DHT22;6493;50.928;7.172;2023-08-08T04:07:36;9.70;65.10
12849;DHT22;6493;50.928;7.172;2023-08-08T04:12:41;9.70;65.10
12849;DHT22;6493;50.928;7.172;2023-08-08T04:17:44;9.70;65.30
12849;DHT22;6493;50.928;7.172;2023-08-08T04:22:48;9.70;65.30
12849;DHT22;6493;50.928;7.172;2023-08-08T04:27:53;9.60;65.30
12849;DHT22;6493;50.928;7.172;2023-08-08T04:32:57;9.70;66.20
12849;DHT22;6493;50.928;7.172;2023-08-08T04:38:01;9.70;65.50
12849;DHT22;6493;50.928;7.172;2023-08-08T04:43:06;9.70;66.30
12849;DHT22;6493;50.928;7.172;2023-08-08T04:48:10;9.70;65.70
12849;DHT22;6493;50.928;7.172;2023-08-08T04:53:13;9.80;65.80
12849;DHT22;6493;50.928;7.172;2023-08-08T04:58:18;9.80;65.80
12849;DHT22;6493;50.928;7.172;2023-08-08T05:03:22;9.80;65.80
12849;DHT22;6493;50.928;7.172;2023-08-08T05:08:26;9.80;65.90
12849;DHT22;6493;50.928;7.172;2023-08-08T05:13:31;9.80;65.90
12849;DHT22;6493;50.928;7.172;2023-08-08T05:18:35;9.90;66.00
12849;DHT22;6493;50.928;7.172;2023-08-08T05:23:38;10.00;66.20
12849;DHT22;6493;50.928;7.172;2023-08-08T05:28:43;9.90;66.00
12849;DHT22;6493;50.928;7.172;2023-08-08T05:33:48;10.00;66.10
12849;DHT22;6493;50.928;7.172;2023-08-08T05:38:52;10.00;66.10
12849;DHT22;6493;50.928;7.172;2023-08-08T05:43:57;10.10;66.20
12849;DHT22;6493;50.928;7.172;2023-08-08T05:49:00;10.10;66.20
12849;DHT22;6493;50.928;7.172;2023-08-08T05:54:04;10.10;66.10
12849;DHT22;6493;50.928;7.172;2023-08-08T05:59:09;10.10;66.20
12849;DHT22;6493;50.928;7.172;2023-08-08T06:04:13;10.10;66.30
12849;DHT22;6493;50.928;7.172;2023-08-08T06:09:17;10.10;66.50
12849;DHT22;6493;50.928;7.172;2023-08-08T06:14:22;10.20;66.70
12849;DHT22;6493;50.928;7.172;2023-08-08T06:19:25;10.30;67.50
12849;DHT22;6493;50.928;7.172;2023-08-08T06:24:29;10.40;67.20
12849;DHT22;6493;50.928;7.172;2023-08-08T06:29:34;10.50;67.20
12849;DHT22;6493;50.928;7.172;2023-08-08T06:34:38;10.50;67.10
12849;DHT22;6493;50.928;7.172;2023-08-08T06:39:41;10.60;67.20
12849;DHT22;6493;50.928;7.172;2023-08-08T06:44:47;10.60;67.20
12849;DHT22;6493;50.928;7.172;2023-08-08T06:49:51;10.70;67.40
12849;DHT22;6493;50.928;7.172;2023-08-08T06:54:54;10.80;67.40
12849;DHT22;6493;50.928;7.172;2023-08-08T06:59:59;10.90;67.60
12849;DHT22;6493;50.928;7.172;2023-08-08T07:05:03;10.90;67.80
12849;DHT22;6493;50.928;7.172;2023-08-08T07:10:09;11.00;68.20
12849;DHT22;6493;50.928;7.172;2023-08-08T07:15:15;11.10;68.50
12849;DHT22;6493;50.928;7.172;2023-08-08T07:20:19;11.30;68.60
12849;DHT22;6493;50.928;7.172;2023-08-08T07:25:23;11.50;68.80
12849;DHT22;6493;50.928;7.172;2023-08-08T07:30:28;11.60;68.80
12849;DHT22;6493;50.928;7.172;2023-08-08T07:35:32;11.80;69.10
12849;DHT22;6493;50.928;7.172;2023-08-08T07:40:36;12.00;69.10
12849;DHT22;6493;50.928;7.172;2023-08-08T07:45:41;12.10;69.80
12849;DHT22;6493;50.928;7.172;2023-08-08T07:50:45;12.30;69.00
12849;DHT22;6493;50.928;7.172;2023-08-08T07:55:49;12.40;68.90
12849;DHT22;6493;50.928;7.172;2023-08-08T08:00:54;12.50;69.50
12849;DHT22;6493;50.928;7.172;2023-08-08T08:05:58;12.60;68.60
12849;DHT22;6493;50.928;7.172;2023-08-08T08:11:01;12.60;68.60
12849;DHT22;6493;50.928;7.172;2023-08-08T08:16:06;12.70;68.70
12849;DHT22;6493;50.928;7.172;2023-08-08T08:21:10;12.70;68.90
12849;DHT22;6493;50.928;7.172;2023-08-08T08:26:15;12.90;69.00
12849;DHT22;6493;50.928;7.172;2023-08-08T08:31:20;13.00;69.20
12849;DHT22;6493;50.928;7.172;2023-08-08T08:36:24;13.10;68.70
12849;DHT22;6493;50.928;7.172;2023-08-08T08:41:28;13.20;68.80
12849;DHT22;6493;50.928;7.172;2023-08-08T08:46:37;13.30;68.60
12849;DHT22;6493;50.928;7.172;2023-08-08T08:51:42;13.40;68.50
12849;DHT22;6493;50.928;7.172;2023-08-08T08:56:45;13.40;68.10
12849;DHT22;6493;50.928;7.172;2023-08-08T09:01:51;13.40;67.60
12849;DHT22;6493;50.928;7.172;2023-08-08T09:06:55;13.30;67.50
12849;DHT22;6493;50.928;7.172;2023-08-08T09:11:59;13.20;67.50
12849;DHT22;6493;50.928;7.172;2023-08-08T09:17:09;13.20;67.60
12849;DHT22;6493;50.928;7.172;2023-08-08T09:22:13;13.10;67.50
12849;DHT22;6493;50.928;7.172;2023-08-08T09:27:17;13.10;67.70
12849;DHT22;6493;50.928;7.172;2023-08-08T09:32:22;13.20;67.90
12849;DHT22;6493;50.928;7.172;2023-08-08T09:37:27;13.20;67.80
12849;DHT22;6493;50.928;7.172;2023-08-08T09:42:31;13.30;68.70
12849;DHT22;6493;50.928;7.172;2023-08-08T09:47:37;13.40;68.10
12849;DHT22;6493;50.928;7.172;2023-08-08T09:52:42;13.50;68.10
12849;DHT22;6493;50.928;7.172;2023-08-08T09:57:47;13.60;68.10
12849;DHT22;6493;50.928;7.172;2023-08-08T10:02:53;13.70;68.00
12849;DHT22;6493;50.928;7.172;2023-08-08T10:07:58;13.80;67.90
12849;DHT22;6493;50.928;7.172;2023-08-08T10:13:01;13.90;67.90
12849;DHT22;6493;50.928;7.172;2023-08-08T10:18:07;13.90;67.60
12849;DHT22;6493;50.928;7.172;2023-08-08T10:23:10;14.00;67.10
12849;DHT22;6493;50.928;7.172;2023-08-08T10:28:17;14.00;66.50
12849;DHT22;6493;50.928;7.172;2023-08-08T10:33:40;14.00;66.40
12849;DHT22;6493;50.928;7.172;2023-08-08T10:38:45;14.00;66.30
12849;DHT22;6493;50.928;7.172;2023-08-08T10:43:52;14.10;67.30
12849;DHT22;6493;50.928;7.172;2023-08-08T10:48:58;14.20;67.50
12849;DHT22;6493;50.928;7.172;2023-08-08T10:54:04;14.40;67.50
12849;DHT22;6493;50.928;7.172;2023-08-08T10:59:15;14.60;67.20
12849;DHT22;6493;50.928;7.172;2023-08-08T11:04:23;14.80;66.50
12849;DHT22;6493;50.928;7.172;2023-08-08T11:09:28;14.90;66.30
12849;DHT22;6493;50.928;7.172;2023-08-08T11:14:32;15.00;65.90
12849;DHT22;6493;50.928;7.172;2023-08-08T11:19:40;14.90;65.40
12849;DHT22;6493;50.928;7.172;2023-08-08T11:24:44;14.90;65.30
12849;DHT22;6493;50.928;7.172;2023-08-08T11:29:49;14.80;65.30
12849;DHT22;6493;50.928;7.172;2023-08-08T11:34:55;14.90;65.30
12849;DHT22;6493;50.928;7.172;2023-08-08T11:39:59;14.80;65.20
12849;DHT22;6493;50.928;7.172;2023-08-08T11:45:03;14.80;65.40
12849;DHT22;6493;50.928;7.172;2023-08-08T11:50:10;14.80;65.50
12849;DHT22;6493;50.928;7.172;2023-08-08T11:55:14;14.80;65.10
12849;DHT22;6493;50.928;7.172;2023-08-08T12:00:18;14.90;65.30
12849;DHT22;6493;50.928;7.172;2023-08-08T12:05:23;14.90;65.20
12849;DHT22;6493;50.928;7.172;2023-08-08T12:10:26;15.00;65.30
12849;DHT22;6493;50.928;7.172;2023-08-08T12:15:32;15.00;64.80
12849;DHT22;6493;50.928;7.172;2023-08-08T12:20:38;14.90;64.50
12849;DHT22;6493;50.928;7.172;2023-08-08T12:25:42;14.90;64.10
12849;DHT22;6493;50.928;7.172;2023-08-08T12:30:46;14.80;64.70
12849;DHT22;6493;50.928;7.172;2023-08-08T12:35:51;14.70;64.30
12849;DHT22;6493;50.928;7.172;2023-08-08T12:40:55;14.70;64.20
12849;DHT22;6493;50.928;7.172;2023-08-08T12:46:00;14.60;63.80
12849;DHT22;6493;50.928;7.172;2023-08-08T12:51:05;14.70;63.30
12849;DHT22;6493;50.928;7.172;2023-08-08T12:56:09;14.60;63.30
12849;DHT22;6493;50.928;7.172;2023-08-08T13:01:13;14.60;63.20
12849;DHT22;6493;50.928;7.172;2023-08-08T13:06:18;14.60;63.20
12849;DHT22;6493;50.928;7.172;2023-08-08T13:11:22;14.60;62.90
12849;DHT22;6493;50.928;7.172;2023-08-08T13:16:26;14.50;63.00
12849;DHT22;6493;50.928;7.172;2023-08-08T13:21:31;14.40;62.90
12849;DHT22;6493;50.928;7.172;2023-08-08T13:26:34;14.40;63.00
12849;DHT22;6493;50.928;7.172;2023-08-08T13:31:38;14.40;63.60
12849;DHT22;6493;50.928;7.172;2023-08-08T13:36:43;14.40;63.80
12849;DHT22;6493;50.928;7.172;2023-08-08T13:41:47;14.40;63.80
12849;DHT22;6493;50.928;7.172;2023-08-08T13:46:50;14.40;64.00
12849;DHT22;6493;50.928;7.172;2023-08-08T13:51:56;14.40;64.30
12849;DHT22;6493;50.928;7.172;2023-08-08T13:57:00;14.50;64.60
12849;DHT22;6493;50.928;7.172;2023-08-08T14:02:03;14.60;64.50
12849;DHT22;6493;50.928;7.172;2023-08-08T14:07:08;14.70;64.40
12849;DHT22;6493;50.928;7.172;2023-08-08T14:12:12;14.80;64.00
12849;DHT22;6493;50.928;7.172;2023-08-08T14:17:16;15.00;63.70
12849;DHT22;6493;50.928;7.172;2023-08-08T14:22:21;14.90;63.10
12849;DHT22;6493;50.928;7.172;2023-08-08T14:27:24;14.90;62.80
12849;DHT22;6493;50.928;7.172;2023-08-08T14:32:28;14.90;62.50
12849;DHT22;6493;50.928;7.172;2023-08-08T14:37:33;14.80;62.90
12849;DHT22;6493;50.928;7.172;2023-08-08T14:42:37;14.80;63.10
12849;DHT22;6493;50.928;7.172;2023-08-08T14:47:40;14.90;63.40
12849;DHT22;6493;50.928;7.172;2023-08-08T14:52:45;15.00;63.40
12849;DHT22;6493;50.928;7.172;2023-08-08T14:57:49;15.10;63.40
12849;DHT22;6493;50.928;7.172;2023-08-08T15:02:53;15.20;63.40
12849;DHT22;6493;50.928;7.172;2023-08-08T15:07:58;15.30;63.50
12849;DHT22;6493;50.928;7.172;2023-08-08T15:13:02;15.40;63.20
12849;DHT22;6493;50.928;7.172;2023-08-08T15:18:05;15.50;62.80
12849;DHT22;6493;50.928;7.172;2023-08-08T15:23:10;15.50;62.50
12849;DHT22;6493;50.928;7.172;2023-08-08T15:28:15;15.50;62.10
12849;DHT22;6493;50.928;7.172;2023-08-08T15:33:19;15.50;62.40
12849;DHT22;6493;50.928;7.172;2023-08-08T15:38:24;15.50;62.40
12849;DHT22;6493;50.928;7.172;2023-08-08T15:43:29;15.50;62.40
12849;DHT22;6493;50.928;7.172;2023-08-08T15:48:32;15.60;62.40
12849;DHT22;6493;50.928;7.172;2023-08-08T15:53:37;15.60;62.20
12849;DHT22;6493;50.928;7.172;2023-08-08T15:58:41;15.60;62.20
12849;DHT22;6493;50.928;7.172;2023-08-08T16:03:45;15.70;62.10
12849;DHT22;6493;50.928;7.172;2023-08-08T16:08:50;15.70;62.00
12849;DHT22;6493;50.928;7.172;2023-08-08T16:13:53;15.70;61.40
12849;DHT22;6493;50.928;7.172;2023-08-08T16:18:57;15.60;61.70
12849;DHT22;6493;50.928;7.172;2023-08-08T16:24:03;15.60;61.60
12849;DHT22;6493;50.928;7.172;2023-08-08T16:29:06;15.60;61.60
12849;DHT22;6493;50.928;7.172;2023-08-08T16:34:11;15.60;61.90
12849;DHT22;6493;50.928;7.172;2023-08-08T16:39:16;15.60;61.80
12849;DHT22;6493;50.928;7.172;2023-08-08T16:44:21;15.50;61.80
12849;DHT22;6493;50.928;7.172;2023-08-08T16:49:24;15.50;61.70
12849;DHT22;6493;50.928;7.172;2023-08-08T16:54:30;15.50;61.50
12849;DHT22;6493;50.928;7.172;2023-08-08T16:59:33;15.40;61.10
12849;DHT22;6493;50.928;7.172;2023-08-08T17:04:37;15.30;61.10
12849;DHT22;6493;50.928;7.172;2023-08-08T17:09:42;15.20;61.10
12849;DHT22;6493;50.928;7.172;2023-08-08T17:14:46;15.20;61.30
12849;DHT22;6493;50.928;7.172;2023-08-08T17:19:49;15.10;61.30
12849;DHT22;6493;50.928;7.172;2023-08-08T17:24:54;15.10;61.40
12849;DHT22;6493;50.928;7.172;2023-08-08T17:29:59;15.00;61.40
12849;DHT22;6493;50.928;7.172;2023-08-08T17:35:03;15.00;61.40
12849;DHT22;6493;50.928;7.172;2023-08-08T17:40:10;14.90;61.50
12849;DHT22;6493;50.928;7.172;2023-08-08T17:45:14;14.90;61.40
12849;DHT22;6493;50.928;7.172;2023-08-08T17:50:17;14.90;61.50
12849;DHT22;6493;50.928;7.172;2023-08-08T17:55:23;14.90;61.30
12849;DHT22;6493;50.928;7.172;2023-08-08T18:00:26;14.90;61.50
12849;DHT22;6493;50.928;7.172;2023-08-08T18:05:30;14.80;61.30
12849;DHT22;6493;50.928;7.172;2023-08-08T18:10:35;14.90;61.50
12849;DHT22;6493;50.928;7.172;2023-08-08T18:15:38;14.80;61.30
12849;DHT22;6493;50.928;7.172;2023-08-08T18:20:42;14.80;61.40
12849;DHT22;6493;50.928;7.172;2023-08-08T18:25:47;14.80;61.40
12849;DHT22;6493;50.928;7.172;2023-08-08T18:30:51;14.70;61.30
12849;DHT22;6493;50.928;7.172;2023-08-08T18:35:54;14.70;61.30
12849;DHT22;6493;50.928;7.172;2023-08-08T18:41:01;14.60;61.20
12849;DHT22;6493;50.928;7.172;2023-08-08T18:46:05;14.60;61.20
12849;DHT22;6493;50.928;7.172;2023-08-08T18:51:08;14.60;61.20
12849;DHT22;6493;50.928;7.172;2023-08-08T18:56:13;14.60;61.30
12849;DHT22;6493;50.928;7.172;2023-08-08T19:01:17;14.50;61.20
12849;DHT22;6493;50.928;7.172;2023-08-08T19:06:20;14.50;61.30
12849;DHT22;6493;50.928;7.172;2023-08-08T19:11:26;14.50;61.20
12849;DHT22;6493;50.928;7.172;2023-08-08T19:16:30;14.40;61.20
12849;DHT22;6493;50.928;7.172;2023-08-08T19:21:33;14.40;61.30
12849;DHT22;6493;50.928;7.172;2023-08-08T19:26:38;14.40;61.30
12849;DHT22;6493;50.928;7.172;2023-08-08T19:31:42;14.30;61.30
12849;DHT22;6493;50.928;7.172;2023-08-08T19:36:46;14.30;61.30
12849;DHT22;6493;50.928;7.172;2023-08-08T19:41:51;14.20;61.20
12849;DHT22;6493;50.928;7.172;2023-08-08T19:46:55;14.20;61.30
12849;DHT22;6493;50.928;7.172;2023-08-08T19:51:58;14.20;61.30
12849;DHT22;6493;50.928;7.172;2023-08-08T19:57:05;14.10;61.20
12849;DHT22;6493;50.928;7.172;2023-08-08T20:02:08;14.10;61.20
12849;DHT22;6493;50.928;7.172;2023-08-08T20:07:12;14.00;61.20
12849;DHT22;6493;50.928;7.172;2023-08-08T20:12:17;14.00;61.30
12849;DHT22;6493;50.928;7.172;2023-08-08T20:17:21;13.90;61.20
12849;DHT22;6493;50.928;7.172;2023-08-08T20:22:24;13.90;61.30
12849;DHT22;6493;50.928;7.172;2023-08-08T20:27:29;13.80;61.40
12849;DHT22;6493;50.928;7.172;2023-08-08T20:32:33;13.80;61.50
12849;DHT22;6493;50.928;7.172;2023-08-08T20:37:37;13.80;61.70
12849;DHT22;6493;50.928;7.172;2023-08-08T20:42:42;13.70;61.60
12849;DHT22;6493;50.928;7.172;2023-08-08T20:47:46;13.60;61.70
12849;DHT22;6493;50.928;7.172;2023-08-08T20:52:50;13.60;62.00
12849;DHT22;6493;50.928;7.172;2023-08-08T20:57:54;13.50;61.90
12849;DHT22;6493;50.928;7.172;2023-08-08T21:02:59;13.50;62.00
12849;DHT22;6493;50.928;7.172;2023-08-08T21:08:03;13.40;62.10
12849;DHT22;6493;50.928;7.172;2023-08-08T21:13:08;13.30;62.20
12849;DHT22;6493;50.928;7.172;2023-08-08T21:18:12;13.30;62.40
12849;DHT22;6493;50.928;7.172;2023-08-08T21:23:15;13.20;62.40
12849;DHT22;6493;50.928;7.172;2023-08-08T21:28:40;13.10;63.30
12849;DHT22;6493;50.928;7.172;2023-08-08T21:33:44;13.00;62.70
12849;DHT22;6493;50.928;7.172;2023-08-08T21:38:48;13.00;62.90
12849;DHT22;6493;50.928;7.172;2023-08-08T21:43:53;12.90;63.10
12849;DHT22;6493;50.928;7.172;2023-08-08T21:48:57;12.90;63.20
12849;DHT22;6493;50.928;7.172;2023-08-08T21:54:03;12.80;63.40
12849;DHT22;6493;50.928;7.172;2023-08-08T21:59:08;12.80;63.50
12849;DHT22;6493;50.928;7.172;2023-08-08T22:04:12;12.70;63.60
12849;DHT22;6493;50.928;7.172;2023-08-08T22:09:16;12.70;63.70
12849;DHT22;6493;50.928;7.172;2023-08-08T22:14:21;12.70;63.80
12849;DHT22;6493;50.928;7.172;2023-08-08T22:19:26;12.70;64.00
12849;DHT22;6493;50.928;7.172;2023-08-08T22:24:29;12.70;64.10
12849;DHT22;6493;50.928;7.172;2023-08-08T22:29:36;12.70;64.30
12849;DHT22;6493;50.928;7.172;2023-08-08T22:34:40;12.70;64.50
12849;DHT22;6493;50.928;7.172;2023-08-08T22:39:44;12.70;64.50
12849;DHT22;6493;50.928;7.172;2023-08-08T22:44:49;12.70;64.50
12849;DHT22;6493;50.928;7.172;2023-08-08T22:49:53;12.70;64.70
12849;DHT22;6493;50.928;7.172;2023-08-08T22:54:57;12.70;64.70
12849;DHT22;6493;50.928;7.172;2023-08-08T23:00:02;12.60;64.70
12849;DHT22;6493;50.928;7.172;2023-08-08T23:05:07;12.60;64.90
12849;DHT22;6493;50.928;7.172;2023-08-08T23:10:11;12.60;65.00
12849;DHT22;6493;50.928;7.172;2023-08-08T23:15:16;12.60;65.00
12849;DHT22;6493;50.928;7.172;2023-08-08T23:20:20;12.50;65.00
12849;DHT22;6493;50.928;7.172;2023-08-08T23:25:23;12.50;65.10
12849;DHT22;6493;50.928;7.172;2023-08-08T23:30:29;12.50;65.20
12849;DHT22;6493;50.928;7.172;2023-08-08T23:35:32;12.50;65.40
12849;DHT22;6493;50.928;7.172;2023-08-08T23:40:36;12.50;65.50
12849;DHT22;6493;50.928;7.172;2023-08-08T23:45:41;12.50;65.50
12849;DHT22;6493;50.928;7.172;2023-08-08T23:50:45;12.50;65.70
12849;DHT22;6493;50.928;7.172;2023-08-08T23:55:48;12.50;65.70
